createdAt,value
2024-05-09T00:01:13.155Z,7.13
2024-05-09T00:03:20.248Z,9.13
2024-05-09T00:05:26.923Z,7.00
2024-05-09T00:07:33.119Z,7.70
2024-05-09T00:09:39.357Z,9.27
2024-05-09T00:11:48.322Z,8.50
2024-05-09T00:13:54.309Z,7.50
2024-05-09T00:16:00.430Z,7.45
2024-05-09T00:18:07.962Z,6.90
2024-05-09T00:20:20.467Z,11.65
2024-05-09T00:22:30.482Z,8.30
2024-05-09T00:24:36.579Z,7.65
2024-05-09T00:26:39.892Z,8.20
2024-05-09T00:28:48.555Z,9.80
2024-05-09T00:30:54.710Z,9.75
2024-05-09T00:33:00.928Z,9.95
2024-05-09T00:35:06.925Z,7.50
2024-05-09T00:37:13.142Z,10.77
2024-05-09T00:39:19.048Z,8.98
2024-05-09T00:41:25.016Z,10.00
2024-05-09T00:43:33.024Z,10.45
2024-05-09T00:45:41.519Z,9.27
2024-05-09T00:47:50.759Z,10.32
2024-05-09T00:49:57.602Z,8.57
2024-05-09T00:52:03.524Z,9.95
2024-05-09T00:54:10.700Z,7.70
2024-05-09T00:56:17.014Z,7.85
2024-05-09T00:58:26.547Z,9.05
2024-05-09T01:00:39.027Z,7.78
2024-05-09T01:02:49.578Z,8.88
2024-05-09T01:04:55.846Z,11.43
2024-05-09T01:07:01.828Z,7.70
2024-05-09T01:09:08.045Z,6.28
2024-05-09T01:11:14.288Z,7.30
2024-05-09T01:13:20.162Z,8.88
2024-05-09T01:15:25.999Z,10.43
2024-05-09T01:17:32.928Z,8.18
2024-05-09T01:19:41.833Z,7.70
2024-05-09T01:21:47.904Z,8.02
2024-05-09T01:23:56.368Z,6.28
2024-05-09T01:26:02.293Z,9.48
2024-05-09T01:28:08.954Z,7.57
2024-05-09T01:30:20.798Z,9.35
2024-05-09T01:32:27.472Z,7.15
2024-05-09T01:34:33.530Z,5.65
2024-05-09T01:36:39.439Z,9.00
2024-05-09T01:38:45.596Z,9.02
2024-05-09T01:40:54.296Z,7.57
2024-05-09T01:43:00.273Z,5.50
2024-05-09T01:45:06.206Z,6.28
2024-05-09T01:47:12.521Z,9.10
2024-05-09T01:49:15.849Z,7.40
2024-05-09T01:51:21.869Z,7.13
2024-05-09T01:53:27.735Z,7.60
2024-05-09T01:55:33.802Z,6.72
2024-05-09T01:57:42.343Z,5.18
2024-05-09T01:59:49.208Z,9.30
2024-05-09T02:01:57.559Z,7.53
2024-05-09T02:04:04.272Z,5.95
2024-05-09T02:06:10.712Z,8.73
2024-05-09T02:08:18.947Z,7.53
2024-05-09T02:10:31.768Z,9.98
2024-05-09T02:12:39.864Z,8.38
2024-05-09T02:14:48.651Z,7.32
2024-05-09T02:16:54.646Z,10.85
2024-05-09T02:19:00.721Z,9.02
2024-05-09T02:21:06.917Z,8.63
2024-05-09T02:23:14.111Z,8.32
2024-05-09T02:25:20.186Z,9.45
2024-05-09T02:27:26.155Z,8.38
2024-05-09T02:29:32.296Z,8.73
2024-05-09T02:31:41.122Z,9.10
2024-05-09T02:33:47.481Z,9.07
2024-05-09T02:35:50.891Z,7.50
2024-05-09T02:37:56.848Z,9.57
2024-05-09T02:40:00.201Z,8.75
2024-05-09T02:42:06.140Z,5.97
2024-05-09T02:44:09.388Z,6.55
2024-05-09T02:46:15.792Z,7.55
2024-05-09T02:48:21.864Z,6.50
2024-05-09T02:50:34.491Z,7.43
2024-05-09T02:52:42.000Z,7.63
2024-05-09T02:54:47.906Z,6.70
2024-05-09T02:56:51.314Z,6.90
2024-05-09T02:58:57.210Z,6.18
2024-05-09T03:01:00.514Z,6.85
2024-05-09T03:03:06.760Z,8.50
2024-05-09T03:05:13.056Z,6.55
2024-05-09T03:07:20.250Z,6.70
2024-05-09T03:09:25.048Z,5.40
2024-05-09T03:11:31.140Z,7.30
2024-05-09T03:13:34.365Z,6.63
2024-05-09T03:15:40.386Z,6.63
2024-05-09T03:17:43.863Z,8.07
2024-05-09T03:19:49.728Z,7.65
2024-05-09T03:21:55.826Z,10.00
2024-05-09T03:24:01.521Z,7.10
2024-05-09T03:26:04.979Z,5.88
2024-05-09T03:28:11.070Z,9.15
2024-05-09T03:30:26.029Z,6.93
2024-05-09T03:32:40.563Z,7.78
2024-05-09T03:34:43.952Z,7.43
2024-05-09T03:36:49.869Z,7.13
2024-05-09T03:38:55.868Z,6.18
2024-05-09T03:41:01.886Z,10.75
2024-05-09T03:43:05.434Z,9.68
2024-05-09T03:45:11.951Z,7.05
2024-05-09T03:47:15.219Z,5.82
2024-05-09T03:49:22.735Z,9.48
2024-05-09T03:51:26.119Z,7.63
2024-05-09T03:53:32.254Z,7.75
2024-05-09T03:55:40.383Z,7.05
2024-05-09T03:57:46.301Z,6.95
2024-05-09T03:59:49.732Z,9.05
2024-05-09T04:01:55.680Z,8.18
2024-05-09T04:03:58.951Z,6.30
2024-05-09T04:06:05.050Z,10.90
2024-05-09T04:08:09.163Z,8.13
2024-05-09T04:10:24.003Z,8.70
2024-05-09T04:12:36.736Z,7.28
2024-05-09T04:14:43.187Z,11.05
2024-05-09T04:16:46.543Z,9.10
2024-05-09T04:18:52.512Z,6.38
2024-05-09T04:20:56.914Z,7.53
2024-05-09T04:23:02.942Z,11.27
2024-05-09T04:25:07.078Z,7.25
2024-05-09T04:27:13.236Z,8.48
2024-05-09T04:29:19.194Z,6.70
2024-05-09T04:31:25.142Z,8.38
2024-05-09T04:33:28.542Z,8.40
2024-05-09T04:35:34.562Z,9.57
2024-05-09T04:37:37.925Z,7.60
2024-05-09T04:39:43.886Z,8.65
2024-05-09T04:41:47.290Z,8.10
2024-05-09T04:43:53.773Z,6.75
2024-05-09T04:45:59.801Z,9.90
2024-05-09T04:48:05.918Z,8.05
2024-05-09T04:50:11.845Z,6.38
2024-05-09T04:52:21.052Z,9.18
2024-05-09T04:54:33.681Z,7.13
2024-05-09T04:56:42.757Z,10.15
2024-05-09T04:58:46.223Z,7.65
2024-05-09T05:00:52.270Z,6.68
2024-05-09T05:02:58.650Z,8.43
2024-05-09T05:05:04.561Z,7.32
2024-05-09T05:07:07.930Z,7.82
2024-05-09T05:09:14.133Z,9.18
2024-05-09T05:11:17.485Z,9.98
2024-05-09T05:13:24.573Z,7.20
2024-05-09T05:15:28.159Z,8.10
2024-05-09T05:17:34.503Z,8.77
2024-05-09T05:19:41.017Z,8.95
2024-05-09T05:21:47.136Z,7.68
2024-05-09T05:23:51.457Z,7.32
2024-05-09T05:25:57.478Z,5.88
2024-05-09T05:28:00.742Z,7.45
2024-05-09T05:30:11.887Z,7.45
2024-05-09T05:32:18.374Z,7.53
2024-05-09T05:34:24.500Z,6.28
2024-05-09T05:36:30.376Z,7.95
2024-05-09T05:38:36.509Z,7.25
2024-05-09T05:40:40.850Z,9.57
2024-05-09T05:42:44.451Z,9.35
2024-05-09T05:44:50.487Z,9.13
2024-05-09T05:46:53.740Z,8.02
2024-05-09T05:48:59.727Z,7.88
2024-05-09T05:51:04.619Z,8.40
2024-05-09T05:53:14.052Z,10.00
2024-05-09T05:55:17.281Z,11.15
2024-05-09T05:57:23.450Z,9.02
2024-05-09T05:59:29.542Z,8.32
2024-05-09T06:01:35.849Z,8.57
2024-05-09T06:03:39.669Z,8.38
2024-05-09T06:05:47.080Z,10.15
2024-05-09T06:07:50.741Z,10.48
2024-05-09T06:09:59.654Z,10.45
2024-05-09T06:12:03.144Z,6.38
2024-05-09T06:14:09.322Z,11.48
2024-05-09T06:16:12.586Z,12.27
2024-05-09T06:18:18.853Z,8.63
2024-05-09T06:20:31.568Z,7.95
2024-05-09T06:22:41.999Z,7.32
2024-05-09T06:24:45.482Z,8.65
2024-05-09T06:26:54.045Z,8.40
2024-05-09T06:28:58.058Z,7.28
2024-05-09T06:31:05.385Z,9.57
2024-05-09T06:33:11.753Z,9.45
2024-05-09T06:35:19.961Z,7.70
2024-05-09T06:37:23.301Z,7.93
2024-05-09T06:39:29.398Z,8.70
2024-05-09T06:41:32.742Z,7.07
2024-05-09T06:43:41.816Z,6.68
2024-05-09T06:45:47.371Z,13.55
2024-05-09T06:47:54.610Z,15.20
2024-05-09T06:49:57.979Z,10.02
2024-05-09T06:52:03.947Z,8.75
2024-05-09T06:54:08.713Z,9.73
2024-05-09T06:56:14.776Z,7.93
2024-05-09T06:58:18.152Z,10.13
2024-05-09T07:00:35.079Z,9.30
2024-05-09T07:02:43.766Z,7.88
2024-05-09T07:04:52.867Z,9.70
2024-05-09T07:06:56.388Z,8.93
2024-05-09T07:09:02.271Z,7.22
2024-05-09T07:11:05.972Z,7.50
2024-05-09T07:13:13.239Z,10.65
2024-05-09T07:15:17.313Z,6.57
2024-05-09T07:17:23.619Z,9.27
2024-05-09T07:19:29.871Z,7.85
2024-05-09T07:21:33.074Z,10.38
2024-05-09T07:23:39.321Z,7.32
2024-05-09T07:25:43.411Z,6.80
2024-05-09T07:27:49.776Z,7.45
2024-05-09T07:29:53.319Z,5.20
2024-05-09T07:31:59.298Z,5.13
2024-05-09T07:34:05.342Z,5.78
2024-05-09T07:36:11.920Z,7.05
2024-05-09T07:38:15.378Z,8.40
2024-05-09T07:40:31.693Z,8.30
2024-05-09T07:42:38.884Z,7.10
2024-05-09T07:44:44.951Z,6.70
2024-05-09T07:47:48.682Z,7.43
2024-05-09T07:50:56.059Z,8.15
2024-05-09T07:53:53.269Z,6.53
2024-05-09T07:55:59.253Z,6.85
2024-05-09T07:58:05.544Z,9.70
2024-05-09T08:00:14.296Z,10.13
2024-05-09T08:02:20.740Z,11.40
2024-05-09T08:04:26.950Z,7.40
2024-05-09T08:06:33.757Z,9.43
2024-05-09T08:08:37.066Z,7.88
2024-05-09T08:10:40.333Z,8.05
2024-05-09T08:12:46.220Z,10.05
2024-05-09T08:14:50.255Z,7.80
2024-05-09T08:16:56.384Z,6.65
2024-05-09T08:18:59.980Z,7.60
2024-05-09T08:21:09.352Z,10.40
2024-05-09T08:23:13.851Z,10.85
2024-05-09T08:25:20.721Z,9.20
2024-05-09T08:27:26.513Z,10.23
2024-05-09T08:29:32.560Z,10.75
2024-05-09T08:31:38.830Z,8.93
2024-05-09T08:33:48.358Z,8.02
2024-05-09T08:35:51.890Z,6.78
2024-05-09T08:38:00.476Z,8.95
2024-05-09T08:40:04.156Z,7.68
2024-05-09T08:44:14.896Z,9.25
2024-05-09T08:46:21.485Z,9.25
2024-05-09T08:48:25.304Z,10.70
2024-05-09T08:50:38.020Z,9.35
2024-05-09T08:52:43.195Z,11.07
2024-05-09T08:54:52.563Z,7.75
2024-05-09T08:56:56.083Z,10.48
2024-05-09T08:59:05.449Z,9.35
2024-05-09T09:01:09.162Z,10.70
2024-05-09T09:03:19.211Z,7.30
2024-05-09T09:05:26.823Z,7.95
2024-05-09T09:07:35.098Z,9.00
2024-05-09T09:09:43.731Z,8.02
2024-05-09T09:11:53.071Z,9.05
2024-05-09T09:13:56.520Z,8.30
2024-05-09T09:16:03.260Z,9.32
2024-05-09T09:18:09.539Z,10.57
2024-05-09T09:20:23.282Z,8.23
2024-05-09T09:22:34.716Z,9.20
2024-05-09T09:24:40.693Z,8.68
2024-05-09T09:26:46.081Z,12.68
2024-05-09T09:28:55.290Z,12.93
2024-05-09T09:31:03.460Z,10.60
2024-05-09T09:33:10.637Z,8.55
2024-05-09T09:35:15.187Z,12.07
2024-05-09T09:37:26.782Z,11.15
2024-05-09T09:39:32.672Z,13.23
2024-05-09T09:41:40.663Z,8.35
2024-05-09T09:43:44.136Z,9.95
2024-05-09T09:45:55.656Z,8.75
2024-05-09T09:48:01.101Z,8.02
2024-05-09T09:50:14.223Z,12.27
2024-05-09T09:52:20.479Z,13.52
2024-05-09T09:54:27.417Z,10.95
2024-05-09T09:56:31.789Z,11.50
2024-05-09T09:58:39.794Z,10.98
2024-05-09T10:00:43.824Z,10.93
2024-05-09T10:02:53.230Z,9.25
2024-05-09T10:04:57.324Z,11.10
2024-05-09T10:07:07.000Z,9.77
2024-05-09T10:09:12.157Z,10.05
2024-05-09T10:11:23.337Z,9.20
2024-05-09T10:13:34.977Z,11.35
2024-05-09T10:15:48.607Z,10.55
2024-05-09T10:17:54.721Z,10.82
2024-05-09T10:20:14.934Z,9.52
2024-05-09T10:22:28.940Z,12.20
2024-05-09T10:24:50.605Z,9.60
2024-05-09T10:26:54.252Z,9.48
2024-05-09T10:29:03.533Z,9.65
2024-05-09T10:31:11.411Z,9.40
2024-05-09T10:33:23.675Z,10.23
2024-05-09T10:35:26.982Z,9.10
2024-05-09T10:37:34.753Z,9.45
2024-05-09T10:39:37.980Z,8.93
2024-05-09T10:41:44.263Z,7.60
2024-05-09T10:43:51.644Z,8.18
2024-05-09T10:45:57.848Z,9.45
2024-05-09T10:48:01.791Z,11.73
2024-05-09T10:50:18.544Z,8.98
2024-05-09T10:52:29.046Z,7.82
2024-05-09T10:54:39.833Z,10.93
2024-05-09T10:56:43.070Z,10.38
2024-05-09T10:58:49.093Z,8.73
2024-05-09T11:00:53.072Z,10.00
2024-05-09T11:03:00.111Z,10.55
2024-05-09T11:05:03.565Z,11.45
2024-05-09T11:07:15.319Z,8.07
2024-05-09T11:09:18.894Z,8.40
2024-05-09T11:11:24.990Z,7.88
2024-05-09T11:13:28.879Z,8.20
2024-05-09T11:15:42.559Z,8.93
2024-05-09T11:17:45.816Z,8.52
2024-05-09T11:19:54.440Z,7.45
2024-05-09T11:21:58.071Z,10.15
2024-05-09T11:24:10.983Z,9.20
2024-05-09T11:26:19.534Z,10.05
2024-05-09T11:28:23.425Z,8.77
2024-05-09T11:30:32.089Z,11.20
2024-05-09T11:32:38.775Z,9.50
2024-05-09T11:34:46.700Z,8.00
2024-05-09T11:36:49.912Z,8.65
2024-05-09T11:38:55.881Z,10.32
2024-05-09T11:41:02.748Z,12.48
2024-05-09T11:43:09.979Z,8.60
2024-05-09T11:45:13.790Z,9.52
2024-05-09T11:47:22.007Z,9.70
2024-05-09T11:49:26.902Z,10.55
2024-05-09T11:51:33.175Z,10.73
2024-05-09T11:53:36.476Z,11.32
2024-05-09T11:55:42.474Z,11.38
2024-05-09T11:57:49.599Z,12.43
2024-05-09T11:59:55.648Z,11.35
2024-05-09T12:01:58.868Z,12.52
2024-05-09T12:04:05.473Z,12.55
2024-05-09T12:06:09.052Z,10.70
2024-05-09T12:08:15.686Z,14.60
2024-05-09T12:10:22.464Z,13.07
2024-05-09T12:12:32.951Z,14.85
2024-05-09T12:14:40.714Z,13.35
2024-05-09T12:16:46.718Z,14.18
2024-05-09T12:18:50.359Z,13.05
2024-05-09T12:20:56.404Z,12.82
2024-05-09T12:22:59.739Z,13.00
2024-05-09T12:25:06.505Z,13.02
2024-05-09T12:27:09.720Z,11.30
2024-05-09T12:29:15.907Z,14.23
2024-05-09T12:31:21.921Z,11.95
2024-05-09T12:33:28.235Z,13.98
2024-05-09T12:35:31.791Z,13.48
2024-05-09T12:37:37.920Z,11.90
2024-05-09T12:39:41.287Z,13.07
2024-05-09T12:41:47.150Z,14.10
2024-05-09T12:43:50.351Z,16.35
2024-05-09T12:45:56.393Z,14.60
2024-05-09T12:48:02.467Z,16.10
2024-05-09T12:50:18.753Z,14.88
2024-05-09T12:52:28.808Z,12.68
2024-05-09T12:54:35.040Z,12.48
2024-05-09T12:56:38.350Z,11.82
2024-05-09T12:58:44.386Z,14.85
2024-05-09T13:00:48.427Z,11.13
2024-05-09T13:02:54.436Z,11.98
2024-05-09T13:05:00.458Z,12.02
2024-05-09T13:07:08.056Z,11.57
2024-05-09T13:09:12.206Z,15.35
2024-05-09T13:11:18.365Z,12.35
2024-05-09T13:13:21.590Z,16.15
2024-05-09T13:15:27.551Z,12.55
2024-05-09T13:17:30.975Z,13.23
2024-05-09T13:19:36.960Z,15.73
2024-05-09T13:21:42.802Z,13.77
2024-05-09T13:23:48.688Z,14.00
2024-05-09T13:25:52.066Z,13.43
2024-05-09T13:27:58.166Z,11.73
2024-05-09T13:30:01.445Z,10.60
2024-05-09T13:32:07.741Z,10.88
2024-05-09T13:34:11.222Z,9.40
2024-05-09T13:36:17.341Z,9.10
2024-05-09T13:38:23.768Z,12.23
2024-05-09T13:40:34.206Z,10.25
2024-05-09T13:42:40.062Z,11.80
2024-05-09T13:44:48.592Z,10.82
2024-05-09T13:46:55.318Z,11.07
2024-05-09T13:49:02.065Z,12.25
2024-05-09T13:51:09.514Z,12.75
2024-05-09T13:53:19.076Z,9.82
2024-05-09T13:55:25.640Z,10.07
2024-05-09T13:57:32.597Z,10.25
2024-05-09T13:59:36.881Z,11.82
2024-05-09T14:01:43.405Z,9.38
2024-05-09T14:03:46.929Z,12.70
2024-05-09T14:05:53.337Z,9.85
2024-05-09T14:07:57.207Z,7.47
2024-05-09T14:10:04.105Z,8.38
2024-05-09T14:12:12.600Z,10.88
2024-05-09T14:14:20.133Z,7.93
2024-05-09T14:16:23.696Z,10.32
2024-05-09T14:18:31.109Z,12.55
2024-05-09T14:20:34.555Z,10.30
2024-05-09T14:22:42.164Z,7.97
2024-05-09T14:24:45.552Z,9.68
2024-05-09T14:26:56.170Z,9.48
2024-05-09T14:29:06.221Z,7.85
2024-05-09T14:31:13.363Z,8.77
2024-05-09T14:33:23.834Z,10.98
2024-05-09T14:35:30.057Z,8.65
2024-05-09T14:37:35.519Z,8.27
2024-05-09T14:39:42.560Z,10.63
2024-05-09T14:41:46.913Z,7.82
2024-05-09T14:43:53.110Z,7.78
2024-05-09T14:45:59.634Z,8.23
2024-05-09T14:48:06.261Z,7.50
2024-05-09T14:50:16.785Z,12.18
2024-05-09T14:52:29.338Z,10.40
2024-05-09T14:54:32.538Z,8.45
2024-05-09T14:56:38.789Z,9.45
2024-05-09T14:58:42.663Z,6.13
2024-05-09T15:00:51.742Z,9.02
2024-05-09T15:02:58.726Z,9.65
2024-05-09T15:05:04.732Z,8.80
2024-05-09T15:07:10.355Z,8.50
2024-05-09T15:09:18.603Z,8.77
2024-05-09T15:11:21.803Z,10.25
2024-05-09T15:13:32.898Z,7.80
2024-05-09T15:15:37.501Z,7.65
2024-05-09T15:17:44.109Z,8.80
2024-05-09T15:19:57.729Z,11.38
2024-05-09T15:22:04.503Z,8.43
2024-05-09T15:24:08.052Z,10.00
2024-05-09T15:26:14.525Z,8.35
2024-05-09T15:28:18.527Z,11.05
2024-05-09T15:30:30.746Z,8.18
2024-05-09T15:32:36.537Z,11.38
2024-05-09T15:34:42.679Z,8.05
2024-05-09T15:36:51.647Z,6.75
2024-05-09T15:39:01.125Z,6.43
2024-05-09T15:41:05.089Z,5.22
2024-05-09T15:43:12.051Z,4.55
2024-05-09T15:45:15.804Z,7.47
2024-05-09T15:47:21.936Z,7.75
2024-05-09T15:49:25.415Z,5.78
2024-05-09T15:51:31.668Z,6.00
2024-05-09T15:53:37.817Z,6.40
2024-05-09T15:55:43.808Z,6.75
2024-05-09T15:57:47.258Z,7.00
2024-05-09T15:59:53.774Z,5.38
2024-05-09T16:01:57.399Z,4.68
2024-05-09T16:04:04.386Z,10.27
2024-05-09T16:06:07.933Z,5.30
2024-05-09T16:08:15.333Z,4.15
2024-05-09T16:10:25.966Z,7.03
2024-05-09T16:12:37.554Z,3.83
2024-05-09T16:14:40.804Z,4.45
2024-05-09T16:16:47.101Z,6.15
2024-05-09T16:18:50.471Z,5.75
2024-05-09T16:21:00.455Z,9.05
2024-05-09T16:23:03.835Z,5.93
2024-05-09T16:25:10.879Z,7.28
2024-05-09T16:27:17.149Z,8.07
2024-05-09T16:29:23.551Z,6.68
2024-05-09T16:31:27.079Z,9.27
2024-05-09T16:33:33.767Z,10.93
2024-05-09T16:35:37.797Z,21.23
2024-05-09T16:37:43.972Z,9.55
2024-05-09T16:39:48.513Z,10.70
2024-05-09T16:41:54.461Z,9.80
2024-05-09T16:44:02.555Z,6.68
2024-05-09T16:46:09.295Z,10.60
2024-05-09T16:48:13.444Z,8.85
2024-05-09T16:50:26.400Z,7.90
2024-05-09T16:52:34.471Z,9.77
2024-05-09T16:54:40.643Z,9.10
2024-05-09T16:56:45.731Z,9.43
2024-05-09T16:58:52.232Z,9.25
2024-05-09T17:00:58.657Z,6.95
2024-05-09T17:03:04.706Z,10.93
2024-05-09T17:05:08.764Z,7.53
2024-05-09T17:07:16.009Z,7.07
2024-05-09T17:09:20.204Z,10.93
2024-05-09T17:11:26.350Z,9.48
2024-05-09T17:13:29.889Z,9.13
2024-05-09T17:15:37.129Z,10.55
2024-05-09T17:17:46.881Z,10.55
2024-05-09T17:19:53.497Z,10.65
2024-05-09T17:21:59.557Z,10.05
2024-05-09T17:24:02.952Z,10.00
2024-05-09T17:26:09.361Z,9.63
2024-05-09T17:28:12.960Z,11.20
2024-05-09T17:30:28.855Z,14.07
2024-05-09T17:32:47.217Z,10.15
2024-05-09T17:34:54.542Z,15.05
2024-05-09T17:36:58.730Z,10.05
2024-05-09T17:39:06.144Z,8.07
2024-05-09T17:41:09.810Z,13.35
2024-05-09T17:43:16.212Z,12.10
2024-05-09T17:45:21.010Z,7.35
2024-05-09T17:49:33.572Z,11.38
2024-05-09T17:51:39.777Z,7.40
2024-05-09T17:53:43.366Z,9.07
2024-05-09T17:55:49.358Z,12.75
2024-05-09T17:57:54.215Z,18.60
2024-05-09T18:00:00.592Z,8.27
2024-05-09T18:02:04.890Z,11.20
2024-05-09T18:04:11.599Z,9.38
2024-05-09T18:06:17.845Z,8.80
2024-05-09T18:08:23.678Z,9.55
2024-05-09T18:10:34.827Z,10.52
2024-05-09T18:12:43.752Z,9.45
2024-05-09T18:14:47.146Z,8.43
2024-05-09T18:16:53.527Z,8.70
2024-05-09T18:19:01.661Z,11.05
2024-05-09T18:21:09.603Z,7.07
2024-05-09T18:23:17.624Z,9.85
2024-05-09T18:25:24.927Z,10.57
2024-05-09T18:27:29.488Z,11.63
2024-05-09T18:29:36.512Z,9.13
2024-05-09T18:31:41.053Z,8.88
2024-05-09T18:33:47.933Z,8.05
2024-05-09T18:35:52.807Z,8.40
2024-05-09T18:37:59.107Z,9.52
2024-05-09T18:40:11.732Z,13.77
2024-05-09T18:42:18.019Z,9.20
2024-05-09T18:44:22.127Z,11.35
2024-05-09T18:46:28.291Z,10.35
2024-05-09T18:48:32.404Z,12.25
2024-05-09T18:50:40.953Z,13.40
2024-05-09T18:52:48.407Z,9.13
2024-05-09T18:54:55.506Z,8.60
2024-05-09T18:57:01.589Z,16.33
2024-05-09T18:59:07.870Z,8.98
2024-05-09T19:01:12.062Z,9.18
2024-05-09T19:03:18.863Z,9.45
2024-05-09T19:05:22.814Z,9.35
2024-05-09T19:07:29.524Z,10.98
2024-05-09T19:09:33.561Z,7.85
2024-05-09T19:11:40.529Z,10.00
2024-05-09T19:13:48.616Z,8.50
2024-05-09T19:15:54.653Z,11.18
2024-05-09T19:17:58.418Z,10.18
2024-05-09T19:20:06.067Z,11.63
2024-05-09T19:22:09.778Z,7.07
2024-05-09T19:24:17.757Z,14.95
2024-05-09T19:26:22.589Z,13.07
2024-05-09T19:30:40.223Z,10.68
2024-05-09T19:32:48.461Z,8.23
2024-05-09T19:34:51.975Z,10.57
2024-05-09T19:37:00.984Z,16.70
2024-05-09T19:39:05.598Z,11.63
2024-05-09T19:41:12.280Z,15.60
2024-05-09T19:43:15.939Z,10.13
2024-05-09T19:45:22.405Z,11.73
2024-05-09T19:47:28.889Z,7.07
2024-05-09T19:49:35.566Z,11.50
2024-05-09T19:51:39.034Z,9.93
2024-05-09T19:53:46.476Z,10.70
2024-05-09T19:55:51.046Z,10.85
2024-05-09T19:57:58.916Z,10.55
2024-05-09T20:00:05.885Z,11.68
2024-05-09T20:02:15.568Z,10.70
2024-05-09T20:04:21.851Z,11.32
2024-05-09T20:06:29.970Z,14.05
2024-05-09T20:08:36.630Z,7.88
2024-05-09T20:10:44.049Z,8.65
2024-05-09T20:12:47.935Z,18.80
2024-05-09T20:14:54.362Z,10.20
2024-05-09T20:16:58.536Z,10.65
2024-05-09T20:19:05.652Z,8.65
2024-05-09T20:21:12.876Z,9.75
2024-05-09T20:23:19.933Z,7.85
2024-05-09T20:25:25.389Z,7.93
2024-05-09T20:27:31.799Z,9.27
2024-05-09T20:29:36.088Z,12.13
2024-05-09T20:31:42.313Z,10.40
2024-05-09T20:33:47.054Z,12.02
2024-05-09T20:38:05.515Z,12.43
2024-05-09T20:40:21.208Z,15.25
2024-05-09T20:42:29.795Z,15.38
2024-05-09T20:44:36.823Z,12.13
2024-05-09T20:46:40.687Z,9.73
2024-05-09T20:48:47.966Z,10.73
2024-05-09T20:50:52.190Z,13.32
2024-05-09T20:52:59.347Z,11.73
2024-05-09T20:55:07.041Z,13.57
2024-05-09T20:57:14.317Z,10.77
2024-05-09T20:59:19.454Z,15.82
2024-05-09T21:03:31.503Z,12.68
2024-05-09T21:05:39.198Z,14.18
2024-05-09T21:07:43.917Z,14.93
2024-05-09T21:09:51.404Z,11.40
2024-05-09T21:11:58.752Z,13.95
2024-05-09T21:14:06.267Z,15.18
2024-05-09T21:16:11.625Z,13.80
2024-05-09T21:18:18.310Z,14.55
2024-05-09T21:20:28.607Z,12.32
2024-05-09T21:22:40.304Z,22.88
2024-05-09T21:24:44.858Z,11.93
2024-05-09T21:26:52.121Z,17.23
2024-05-09T21:29:00.030Z,14.00
2024-05-09T21:31:07.432Z,17.80
2024-05-09T21:33:13.472Z,15.65
2024-05-09T21:35:21.520Z,18.50
2024-05-09T21:37:25.677Z,27.75
2024-05-09T21:39:33.613Z,19.23
2024-05-09T21:41:37.888Z,14.73
2024-05-09T21:43:44.744Z,11.65
2024-05-09T21:45:51.868Z,15.07
2024-05-09T21:47:59.249Z,17.38
2024-05-09T21:50:12.555Z,15.43
2024-05-09T21:52:25.019Z,12.25
2024-05-09T21:54:33.493Z,13.98
2024-05-09T21:56:40.762Z,8.93
2024-05-09T21:58:44.653Z,15.15
2024-05-09T22:00:54.489Z,12.40
2024-05-09T22:02:58.773Z,17.48
2024-05-09T22:05:10.452Z,15.07
2024-05-09T22:07:15.448Z,25.85
2024-05-09T22:09:19.588Z,20.98
2024-05-09T22:11:26.332Z,18.67
2024-05-09T22:13:30.532Z,21.10
2024-05-09T22:15:43.385Z,17.33
2024-05-09T22:17:50.773Z,21.05
2024-05-09T22:20:00.550Z,20.48
2024-05-09T22:22:05.262Z,16.75
2024-05-09T22:24:13.928Z,17.15
2024-05-09T22:26:17.928Z,19.63
2024-05-09T22:28:25.793Z,15.95
2024-05-09T22:30:36.475Z,20.55
2024-05-09T22:32:45.755Z,13.32
2024-05-09T22:34:52.520Z,15.32
2024-05-09T22:37:00.106Z,17.33
2024-05-09T22:39:07.391Z,18.75
2024-05-09T22:41:13.942Z,14.70
2024-05-09T22:43:21.079Z,14.02
2024-05-09T22:45:29.488Z,14.35
2024-05-09T22:47:33.815Z,13.68
2024-05-09T22:49:41.141Z,15.23
2024-05-09T22:51:47.838Z,17.13
2024-05-09T22:53:54.466Z,15.48
2024-05-09T22:55:58.257Z,14.43
2024-05-09T22:58:04.732Z,12.63
2024-05-09T23:00:15.459Z,14.13
2024-05-09T23:02:22.575Z,15.77
2024-05-09T23:04:26.307Z,15.73
2024-05-09T23:06:33.547Z,15.23
2024-05-09T23:08:40.818Z,15.48
2024-05-09T23:10:47.648Z,12.77
2024-05-09T23:12:51.815Z,16.23
2024-05-09T23:14:58.189Z,14.48
2024-05-09T23:17:03.063Z,14.23
2024-05-09T23:21:14.145Z,18.75
2024-05-09T23:23:20.809Z,14.95
2024-05-09T23:25:27.481Z,14.35
2024-05-09T23:27:34.686Z,12.80
2024-05-09T23:29:38.671Z,12.55
2024-05-09T23:31:46.097Z,13.05
2024-05-09T23:33:52.005Z,14.55
2024-05-09T23:35:58.654Z,12.85
2024-05-09T23:38:02.379Z,16.90
2024-05-09T23:40:18.115Z,15.38
2024-05-09T23:42:26.037Z,14.82
2024-05-09T23:44:33.721Z,13.57
2024-05-09T23:46:38.550Z,14.13
2024-05-09T23:48:45.592Z,15.48
2024-05-09T23:50:49.663Z,13.18
2024-05-09T23:52:55.996Z,16.65
2024-05-09T23:54:59.944Z,13.95
2024-05-09T23:57:06.701Z,13.93
2024-05-09T23:59:14.000Z,11.55
